sensor_id;sensor_type;location;lat;lon;timestamp;P1;durP1;ratioP1;P2;durP2;ratioP2
21546;SDS011;41275;51.912;4.388;2024-01-07T00:02:18;6.50;;;4.07;;
21546;SDS011;41275;51.912;4.388;2024-01-07T00:07:40;7.15;;;4.18;;
21546;SDS011;41275;51.912;4.388;2024-01-07T00:13:01;7.10;;;3.92;;
21546;SDS011;41275;51.912;4.388;2024-01-07T00:18:22;8.23;;;4.38;;
21546;SDS011;41275;51.912;4.388;2024-01-07T00:23:44;7.45;;;4.35;;
21546;SDS011;41275;51.912;4.388;2024-01-07T00:29:06;7.78;;;4.22;;
21546;SDS011;41275;51.912;4.388;2024-01-07T00:34:27;7.13;;;4.33;;
21546;SDS011;41275;51.912;4.388;2024-01-07T00:39:48;9.17;;;4.30;;
21546;SDS011;41275;51.912;4.388;2024-01-07T00:45:09;7.00;;;4.43;;
21546;SDS011;41275;51.912;4.388;2024-01-07T00:50:31;8.00;;;4.32;;
21546;SDS011;41275;51.912;4.388;2024-01-07T00:55:52;7.78;;;4.47;;
21546;SDS011;41275;51.912;4.388;2024-01-07T01:01:13;8.17;;;4.73;;
21546;SDS011;41275;51.912;4.388;2024-01-07T01:06:34;7.40;;;4.60;;
21546;SDS011;41275;51.912;4.388;2024-01-07T01:11:56;7.73;;;4.57;;
21546;SDS011;41275;51.912;4.388;2024-01-07T01:17:17;7.25;;;4.13;;
21546;SDS011;41275;51.912;4.388;2024-01-07T01:22:38;6.80;;;4.22;;
21546;SDS011;41275;51.912;4.388;2024-01-07T01:27:59;9.88;;;4.93;;
21546;SDS011;41275;51.912;4.388;2024-01-07T01:33:20;6.57;;;4.33;;
21546;SDS011;41275;51.912;4.388;2024-01-07T01:38:42;7.45;;;4.18;;
21546;SDS011;41275;51.912;4.388;2024-01-07T01:44:03;7.63;;;4.45;;
21546;SDS011;41275;51.912;4.388;2024-01-07T01:49:25;8.77;;;4.88;;
21546;SDS011;41275;51.912;4.388;2024-01-07T01:54:46;9.03;;;4.67;;
21546;SDS011;41275;51.912;4.388;2024-01-07T02:00:07;8.13;;;4.70;;
21546;SDS011;41275;51.912;4.388;2024-01-07T02:05:29;8.43;;;4.50;;
21546;SDS011;41275;51.912;4.388;2024-01-07T02:10:50;7.18;;;4.80;;
21546;SDS011;41275;51.912;4.388;2024-01-07T02:16:12;8.15;;;5.18;;
21546;SDS011;41275;51.912;4.388;2024-01-07T02:21:33;10.50;;;4.93;;
21546;SDS011;41275;51.912;4.388;2024-01-07T02:26:54;8.05;;;5.18;;
21546;SDS011;41275;51.912;4.388;2024-01-07T02:32:16;7.40;;;4.63;;
21546;SDS011;41275;51.912;4.388;2024-01-07T02:37:37;7.97;;;4.97;;
21546;SDS011;41275;51.912;4.388;2024-01-07T02:42:58;8.75;;;4.95;;
21546;SDS011;41275;51.912;4.388;2024-01-07T02:48:19;9.80;;;4.70;;
21546;SDS011;41275;51.912;4.388;2024-01-07T02:53:41;7.45;;;4.60;;
21546;SDS011;41275;51.912;4.388;2024-01-07T02:59:02;7.80;;;4.75;;
21546;SDS011;41275;51.912;4.388;2024-01-07T03:04:23;7.53;;;4.82;;
21546;SDS011;41275;51.912;4.388;2024-01-07T03:09:45;7.50;;;4.90;;
21546;SDS011;41275;51.912;4.388;2024-01-07T03:15:06;8.07;;;4.50;;
21546;SDS011;41275;51.912;4.388;2024-01-07T03:20:29;9.13;;;4.95;;
21546;SDS011;41275;51.912;4.388;2024-01-07T03:25:50;7.63;;;4.65;;
21546;SDS011;41275;51.912;4.388;2024-01-07T03:31:12;8.27;;;4.68;;
21546;SDS011;41275;51.912;4.388;2024-01-07T03:36:35;8.27;;;4.70;;
21546;SDS011;41275;51.912;4.388;2024-01-07T03:41:56;7.57;;;4.85;;
21546;SDS011;41275;51.912;4.388;2024-01-07T03:47:17;7.07;;;4.43;;
21546;SDS011;41275;51.912;4.388;2024-01-07T03:52:39;8.25;;;5.05;;
21546;SDS011;41275;51.912;4.388;2024-01-07T03:58:00;9.85;;;5.22;;
21546;SDS011;41275;51.912;4.388;2024-01-07T04:03:21;9.15;;;5.57;;
21546;SDS011;41275;51.912;4.388;2024-01-07T04:08:42;11.37;;;6.10;;
21546;SDS011;41275;51.912;4.388;2024-01-07T04:14:04;10.17;;;5.50;;
21546;SDS011;41275;51.912;4.388;2024-01-07T04:19:25;11.05;;;5.63;;
21546;SDS011;41275;51.912;4.388;2024-01-07T04:24:46;10.60;;;5.78;;
21546;SDS011;41275;51.912;4.388;2024-01-07T04:30:07;11.73;;;6.30;;
21546;SDS011;41275;51.912;4.388;2024-01-07T04:35:30;9.53;;;5.40;;
21546;SDS011;41275;51.912;4.388;2024-01-07T04:40:51;10.75;;;5.72;;
21546;SDS011;41275;51.912;4.388;2024-01-07T04:46:13;11.63;;;6.22;;
21546;SDS011;41275;51.912;4.388;2024-01-07T04:51:34;10.07;;;6.00;;
21546;SDS011;41275;51.912;4.388;2024-01-07T04:56:57;11.18;;;5.57;;
21546;SDS011;41275;51.912;4.388;2024-01-07T05:02:18;11.20;;;5.38;;
21546;SDS011;41275;51.912;4.388;2024-01-07T05:07:40;8.20;;;4.90;;
21546;SDS011;41275;51.912;4.388;2024-01-07T05:13:01;10.87;;;5.77;;
21546;SDS011;41275;51.912;4.388;2024-01-07T05:18:26;10.32;;;5.55;;
21546;SDS011;41275;51.912;4.388;2024-01-07T05:23:48;10.32;;;5.72;;
21546;SDS011;41275;51.912;4.388;2024-01-07T05:29:09;10.00;;;5.53;;
21546;SDS011;41275;51.912;4.388;2024-01-07T05:34:30;9.88;;;5.00;;
21546;SDS011;41275;51.912;4.388;2024-01-07T05:39:52;8.80;;;5.00;;
21546;SDS011;41275;51.912;4.388;2024-01-07T05:45:13;9.45;;;5.50;;
21546;SDS011;41275;51.912;4.388;2024-01-07T05:50:35;11.02;;;5.75;;
21546;SDS011;41275;51.912;4.388;2024-01-07T05:55:56;10.67;;;5.90;;
21546;SDS011;41275;51.912;4.388;2024-01-07T06:01:18;10.85;;;5.72;;
21546;SDS011;41275;51.912;4.388;2024-01-07T06:06:40;12.30;;;6.43;;
21546;SDS011;41275;51.912;4.388;2024-01-07T06:12:02;11.77;;;6.70;;
21546;SDS011;41275;51.912;4.388;2024-01-07T06:17:23;12.77;;;6.13;;
21546;SDS011;41275;51.912;4.388;2024-01-07T06:22:44;10.88;;;5.93;;
21546;SDS011;41275;51.912;4.388;2024-01-07T06:28:06;11.95;;;6.18;;
21546;SDS011;41275;51.912;4.388;2024-01-07T06:33:27;11.30;;;6.22;;
21546;SDS011;41275;51.912;4.388;2024-01-07T06:38:49;12.00;;;6.50;;
21546;SDS011;41275;51.912;4.388;2024-01-07T06:44:10;12.25;;;6.38;;
21546;SDS011;41275;51.912;4.388;2024-01-07T06:49:31;12.52;;;6.53;;
21546;SDS011;41275;51.912;4.388;2024-01-07T06:54:52;12.40;;;6.47;;
21546;SDS011;41275;51.912;4.388;2024-01-07T07:00:14;15.07;;;7.07;;
21546;SDS011;41275;51.912;4.388;2024-01-07T07:05:36;13.52;;;7.65;;
21546;SDS011;41275;51.912;4.388;2024-01-07T07:10:57;12.82;;;7.28;;
21546;SDS011;41275;51.912;4.388;2024-01-07T07:16:18;13.67;;;6.93;;
21546;SDS011;41275;51.912;4.388;2024-01-07T07:21:40;13.65;;;7.15;;
21546;SDS011;41275;51.912;4.388;2024-01-07T07:27:01;13.52;;;7.30;;
21546;SDS011;41275;51.912;4.388;2024-01-07T07:32:23;15.18;;;7.30;;
21546;SDS011;41275;51.912;4.388;2024-01-07T07:37:44;11.25;;;6.65;;
21546;SDS011;41275;51.912;4.388;2024-01-07T07:43:05;13.43;;;6.70;;
21546;SDS011;41275;51.912;4.388;2024-01-07T07:48:27;14.50;;;6.60;;
21546;SDS011;41275;51.912;4.388;2024-01-07T07:53:49;12.63;;;6.03;;
21546;SDS011;41275;51.912;4.388;2024-01-07T07:59:10;10.52;;;6.10;;
21546;SDS011;41275;51.912;4.388;2024-01-07T08:04:31;10.10;;;5.90;;
21546;SDS011;41275;51.912;4.388;2024-01-07T08:09:53;11.70;;;6.18;;
21546;SDS011;41275;51.912;4.388;2024-01-07T08:15:14;11.35;;;5.80;;
21546;SDS011;41275;51.912;4.388;2024-01-07T08:20:36;11.15;;;5.95;;
21546;SDS011;41275;51.912;4.388;2024-01-07T08:25:57;10.95;;;6.15;;
21546;SDS011;41275;51.912;4.388;2024-01-07T08:31:18;11.75;;;5.22;;
21546;SDS011;41275;51.912;4.388;2024-01-07T08:36:40;9.75;;;5.55;;
21546;SDS011;41275;51.912;4.388;2024-01-07T08:42:01;9.77;;;5.43;;
21546;SDS011;41275;51.912;4.388;2024-01-07T08:47:24;11.20;;;5.57;;
21546;SDS011;41275;51.912;4.388;2024-01-07T08:52:46;9.52;;;5.03;;
21546;SDS011;41275;51.912;4.388;2024-01-07T08:58:08;10.33;;;5.80;;
21546;SDS011;41275;51.912;4.388;2024-01-07T09:03:29;9.18;;;4.85;;
21546;SDS011;41275;51.912;4.388;2024-01-07T09:08:50;8.73;;;5.03;;
21546;SDS011;41275;51.912;4.388;2024-01-07T09:14:12;8.13;;;4.83;;
21546;SDS011;41275;51.912;4.388;2024-01-07T09:19:35;8.00;;;4.43;;
21546;SDS011;41275;51.912;4.388;2024-01-07T09:24:57;8.52;;;4.53;;
21546;SDS011;41275;51.912;4.388;2024-01-07T09:30:18;10.20;;;4.70;;
21546;SDS011;41275;51.912;4.388;2024-01-07T09:35:40;9.43;;;4.90;;
21546;SDS011;41275;51.912;4.388;2024-01-07T09:41:01;9.23;;;5.32;;
21546;SDS011;41275;51.912;4.388;2024-01-07T09:46:23;9.48;;;5.32;;
21546;SDS011;41275;51.912;4.388;2024-01-07T09:51:45;9.05;;;4.80;;
21546;SDS011;41275;51.912;4.388;2024-01-07T09:57:09;9.85;;;4.70;;
21546;SDS011;41275;51.912;4.388;2024-01-07T10:02:31;8.50;;;4.78;;
21546;SDS011;41275;51.912;4.388;2024-01-07T10:07:53;9.57;;;4.80;;
21546;SDS011;41275;51.912;4.388;2024-01-07T10:13:16;10.75;;;4.70;;
21546;SDS011;41275;51.912;4.388;2024-01-07T10:18:37;9.27;;;4.50;;
21546;SDS011;41275;51.912;4.388;2024-01-07T10:24:11;9.07;;;4.57;;
21546;SDS011;41275;51.912;4.388;2024-01-07T10:29:33;10.30;;;4.65;;
21546;SDS011;41275;51.912;4.388;2024-01-07T10:34:57;8.57;;;4.67;;
21546;SDS011;41275;51.912;4.388;2024-01-07T10:40:26;10.02;;;5.07;;
21546;SDS011;41275;51.912;4.388;2024-01-07T10:45:48;9.30;;;4.82;;
21546;SDS011;41275;51.912;4.388;2024-01-07T10:51:10;8.63;;;4.85;;
21546;SDS011;41275;51.912;4.388;2024-01-07T10:56:39;9.77;;;4.77;;
21546;SDS011;41275;51.912;4.388;2024-01-07T11:02:06;8.03;;;4.17;;
21546;SDS011;41275;51.912;4.388;2024-01-07T11:07:31;7.70;;;4.50;;
21546;SDS011;41275;51.912;4.388;2024-01-07T11:12:58;8.63;;;3.83;;
21546;SDS011;41275;51.912;4.388;2024-01-07T11:18:20;10.48;;;4.10;;
21546;SDS011;41275;51.912;4.388;2024-01-07T11:23:43;6.70;;;3.70;;
21546;SDS011;41275;51.912;4.388;2024-01-07T11:29:04;9.40;;;4.03;;
21546;SDS011;41275;51.912;4.388;2024-01-07T11:34:42;7.43;;;3.90;;
21546;SDS011;41275;51.912;4.388;2024-01-07T11:40:10;7.50;;;3.67;;
21546;SDS011;41275;51.912;4.388;2024-01-07T11:45:32;6.18;;;3.40;;
21546;SDS011;41275;51.912;4.388;2024-01-07T11:50:53;6.93;;;3.27;;
21546;SDS011;41275;51.912;4.388;2024-01-07T11:56:14;5.38;;;2.90;;
21546;SDS011;41275;51.912;4.388;2024-01-07T12:01:36;7.57;;;2.92;;
21546;SDS011;41275;51.912;4.388;2024-01-07T12:06:57;5.72;;;2.75;;
21546;SDS011;41275;51.912;4.388;2024-01-07T12:12:19;5.82;;;2.85;;
21546;SDS011;41275;51.912;4.388;2024-01-07T12:17:40;5.95;;;2.70;;
21546;SDS011;41275;51.912;4.388;2024-01-07T12:23:08;5.35;;;2.60;;
21546;SDS011;41275;51.912;4.388;2024-01-07T12:28:30;6.32;;;2.92;;
21546;SDS011;41275;51.912;4.388;2024-01-07T12:33:51;4.03;;;1.90;;
21546;SDS011;41275;51.912;4.388;2024-01-07T12:39:14;5.20;;;2.10;;
21546;SDS011;41275;51.912;4.388;2024-01-07T12:44:38;4.87;;;2.20;;
21546;SDS011;41275;51.912;4.388;2024-01-07T12:49:59;4.15;;;2.13;;
21546;SDS011;41275;51.912;4.388;2024-01-07T12:55:20;3.30;;;1.63;;
21546;SDS011;41275;51.912;4.388;2024-01-07T13:00:42;3.90;;;2.00;;
21546;SDS011;41275;51.912;4.388;2024-01-07T13:06:03;4.10;;;2.13;;
21546;SDS011;41275;51.912;4.388;2024-01-07T13:11:25;4.93;;;2.00;;
21546;SDS011;41275;51.912;4.388;2024-01-07T13:16:46;4.32;;;1.92;;
21546;SDS011;41275;51.912;4.388;2024-01-07T13:22:07;3.58;;;1.85;;
21546;SDS011;41275;51.912;4.388;2024-01-07T13:27:30;4.68;;;1.90;;
21546;SDS011;41275;51.912;4.388;2024-01-07T13:32:51;3.65;;;1.52;;
21546;SDS011;41275;51.912;4.388;2024-01-07T13:38:17;3.17;;;1.20;;
21546;SDS011;41275;51.912;4.388;2024-01-07T13:43:38;2.22;;;1.05;;
21546;SDS011;41275;51.912;4.388;2024-01-07T13:49:01;2.70;;;1.27;;
21546;SDS011;41275;51.912;4.388;2024-01-07T13:54:22;2.93;;;1.40;;
21546;SDS011;41275;51.912;4.388;2024-01-07T13:59:44;3.33;;;1.20;;
21546;SDS011;41275;51.912;4.388;2024-01-07T14:05:06;1.90;;;1.13;;
21546;SDS011;41275;51.912;4.388;2024-01-07T14:10:27;2.35;;;1.30;;
21546;SDS011;41275;51.912;4.388;2024-01-07T14:15:50;2.43;;;1.10;;
21546;SDS011;41275;51.912;4.388;2024-01-07T14:21:11;2.38;;;1.05;;
21546;SDS011;41275;51.912;4.388;2024-01-07T14:26:32;3.17;;;1.27;;
21546;SDS011;41275;51.912;4.388;2024-01-07T14:31:53;4.43;;;1.27;;
21546;SDS011;41275;51.912;4.388;2024-01-07T14:37:15;1.88;;;0.82;;
21546;SDS011;41275;51.912;4.388;2024-01-07T14:42:36;1.58;;;1.00;;
21546;SDS011;41275;51.912;4.388;2024-01-07T14:47:58;2.08;;;1.02;;
21546;SDS011;41275;51.912;4.388;2024-01-07T14:53:19;2.35;;;1.08;;
21546;SDS011;41275;51.912;4.388;2024-01-07T14:58:40;2.07;;;1.07;;
21546;SDS011;41275;51.912;4.388;2024-01-07T15:04:01;3.30;;;1.10;;
21546;SDS011;41275;51.912;4.388;2024-01-07T15:09:23;2.08;;;1.05;;
21546;SDS011;41275;51.912;4.388;2024-01-07T15:14:44;1.88;;;1.10;;
21546;SDS011;41275;51.912;4.388;2024-01-07T15:20:07;2.80;;;1.20;;
21546;SDS011;41275;51.912;4.388;2024-01-07T15:25:29;2.42;;;1.15;;
21546;SDS011;41275;51.912;4.388;2024-01-07T15:30:50;1.60;;;0.90;;
21546;SDS011;41275;51.912;4.388;2024-01-07T15:36:11;4.70;;;1.33;;
21546;SDS011;41275;51.912;4.388;2024-01-07T15:41:33;3.10;;;1.10;;
21546;SDS011;41275;51.912;4.388;2024-01-07T15:46:54;2.33;;;0.93;;
21546;SDS011;41275;51.912;4.388;2024-01-07T15:52:16;2.83;;;1.33;;
21546;SDS011;41275;51.912;4.388;2024-01-07T15:57:37;3.30;;;1.03;;
21546;SDS011;41275;51.912;4.388;2024-01-07T16:02:58;2.58;;;1.23;;
21546;SDS011;41275;51.912;4.388;2024-01-07T16:08:20;2.87;;;1.13;;
21546;SDS011;41275;51.912;4.388;2024-01-07T16:13:41;2.20;;;1.10;;
21546;SDS011;41275;51.912;4.388;2024-01-07T16:19:03;2.55;;;1.20;;
21546;SDS011;41275;51.912;4.388;2024-01-07T16:24:25;2.60;;;1.30;;
21546;SDS011;41275;51.912;4.388;2024-01-07T16:29:47;3.00;;;1.38;;
21546;SDS011;41275;51.912;4.388;2024-01-07T16:35:08;5.20;;;1.55;;
21546;SDS011;41275;51.912;4.388;2024-01-07T16:40:29;3.95;;;1.25;;
21546;SDS011;41275;51.912;4.388;2024-01-07T16:45:50;3.37;;;1.50;;
21546;SDS011;41275;51.912;4.388;2024-01-07T16:51:12;4.18;;;1.77;;
21546;SDS011;41275;51.912;4.388;2024-01-07T16:56:38;4.93;;;1.75;;
21546;SDS011;41275;51.912;4.388;2024-01-07T17:01:59;4.13;;;1.50;;
21546;SDS011;41275;51.912;4.388;2024-01-07T17:07:21;4.28;;;1.63;;
21546;SDS011;41275;51.912;4.388;2024-01-07T17:12:42;4.60;;;2.00;;
21546;SDS011;41275;51.912;4.388;2024-01-07T17:18:04;3.05;;;1.60;;
21546;SDS011;41275;51.912;4.388;2024-01-07T17:23:25;3.85;;;1.95;;
21546;SDS011;41275;51.912;4.388;2024-01-07T17:28:47;5.57;;;2.20;;
21546;SDS011;41275;51.912;4.388;2024-01-07T17:34:08;4.40;;;2.10;;
21546;SDS011;41275;51.912;4.388;2024-01-07T17:39:29;4.60;;;2.00;;
21546;SDS011;41275;51.912;4.388;2024-01-07T17:44:53;8.10;;;3.00;;
21546;SDS011;41275;51.912;4.388;2024-01-07T17:50:14;4.45;;;2.10;;
21546;SDS011;41275;51.912;4.388;2024-01-07T17:55:36;3.70;;;2.17;;
21546;SDS011;41275;51.912;4.388;2024-01-07T18:00:57;3.72;;;1.98;;
21546;SDS011;41275;51.912;4.388;2024-01-07T18:06:19;4.97;;;1.95;;
21546;SDS011;41275;51.912;4.388;2024-01-07T18:11:40;6.65;;;2.53;;
21546;SDS011;41275;51.912;4.388;2024-01-07T18:17:01;4.37;;;2.30;;
21546;SDS011;41275;51.912;4.388;2024-01-07T18:22:22;6.35;;;2.15;;
21546;SDS011;41275;51.912;4.388;2024-01-07T18:27:43;6.13;;;2.63;;
21546;SDS011;41275;51.912;4.388;2024-01-07T18:33:05;5.43;;;2.60;;
21546;SDS011;41275;51.912;4.388;2024-01-07T18:38:27;6.47;;;2.08;;
21546;SDS011;41275;51.912;4.388;2024-01-07T18:43:48;6.13;;;2.80;;
21546;SDS011;41275;51.912;4.388;2024-01-07T18:49:09;5.28;;;2.38;;
21546;SDS011;41275;51.912;4.388;2024-01-07T18:54:30;6.10;;;2.30;;
21546;SDS011;41275;51.912;4.388;2024-01-07T18:59:52;4.10;;;2.35;;
21546;SDS011;41275;51.912;4.388;2024-01-07T19:05:13;6.25;;;2.72;;
21546;SDS011;41275;51.912;4.388;2024-01-07T19:10:50;6.03;;;2.65;;
21546;SDS011;41275;51.912;4.388;2024-01-07T19:16:12;8.32;;;2.58;;
21546;SDS011;41275;51.912;4.388;2024-01-07T19:21:33;7.15;;;2.88;;
21546;SDS011;41275;51.912;4.388;2024-01-07T19:26:54;5.55;;;2.63;;
21546;SDS011;41275;51.912;4.388;2024-01-07T19:32:15;6.70;;;2.95;;
21546;SDS011;41275;51.912;4.388;2024-01-07T19:37:37;6.07;;;2.70;;
21546;SDS011;41275;51.912;4.388;2024-01-07T19:42:59;7.63;;;2.55;;
21546;SDS011;41275;51.912;4.388;2024-01-07T19:48:20;6.87;;;2.60;;
21546;SDS011;41275;51.912;4.388;2024-01-07T19:53:41;6.10;;;2.30;;
21546;SDS011;41275;51.912;4.388;2024-01-07T19:59:02;6.30;;;2.50;;
21546;SDS011;41275;51.912;4.388;2024-01-07T20:04:24;8.45;;;2.60;;
21546;SDS011;41275;51.912;4.388;2024-01-07T20:09:45;6.43;;;2.53;;
21546;SDS011;41275;51.912;4.388;2024-01-07T20:15:07;5.93;;;2.55;;
21546;SDS011;41275;51.912;4.388;2024-01-07T20:20:28;9.10;;;2.77;;
21546;SDS011;41275;51.912;4.388;2024-01-07T20:25:49;9.55;;;3.20;;
21546;SDS011;41275;51.912;4.388;2024-01-07T20:31:11;8.98;;;2.80;;
21546;SDS011;41275;51.912;4.388;2024-01-07T20:36:32;7.25;;;2.45;;
21546;SDS011;41275;51.912;4.388;2024-01-07T20:41:53;4.43;;;2.13;;
21546;SDS011;41275;51.912;4.388;2024-01-07T20:47:16;5.15;;;2.25;;
21546;SDS011;41275;51.912;4.388;2024-01-07T20:52:37;3.72;;;1.95;;
21546;SDS011;41275;51.912;4.388;2024-01-07T20:57:58;5.53;;;2.30;;
21546;SDS011;41275;51.912;4.388;2024-01-07T21:03:20;5.77;;;2.20;;
21546;SDS011;41275;51.912;4.388;2024-01-07T21:08:41;3.67;;;1.70;;
21546;SDS011;41275;51.912;4.388;2024-01-07T21:14:02;4.67;;;1.80;;
21546;SDS011;41275;51.912;4.388;2024-01-07T21:19:23;4.32;;;1.60;;
21546;SDS011;41275;51.912;4.388;2024-01-07T21:24:45;5.90;;;1.63;;
21546;SDS011;41275;51.912;4.388;2024-01-07T21:30:06;3.87;;;1.70;;
21546;SDS011;41275;51.912;4.388;2024-01-07T21:35:28;3.63;;;1.50;;
21546;SDS011;41275;51.912;4.388;2024-01-07T21:40:49;3.83;;;1.63;;
21546;SDS011;41275;51.912;4.388;2024-01-07T21:46:11;5.70;;;1.80;;
21546;SDS011;41275;51.912;4.388;2024-01-07T21:51:36;2.35;;;1.25;;
21546;SDS011;41275;51.912;4.388;2024-01-07T21:56:57;4.40;;;1.70;;
21546;SDS011;41275;51.912;4.388;2024-01-07T22:02:19;3.42;;;1.58;;
21546;SDS011;41275;51.912;4.388;2024-01-07T22:07:42;3.30;;;1.70;;
21546;SDS011;41275;51.912;4.388;2024-01-07T22:13:03;6.15;;;2.13;;
21546;SDS011;41275;51.912;4.388;2024-01-07T22:18:24;3.97;;;1.60;;
21546;SDS011;41275;51.912;4.388;2024-01-07T22:23:46;6.88;;;2.20;;
21546;SDS011;41275;51.912;4.388;2024-01-07T22:29:07;4.78;;;1.85;;
21546;SDS011;41275;51.912;4.388;2024-01-07T22:34:29;4.75;;;1.83;;
21546;SDS011;41275;51.912;4.388;2024-01-07T22:39:50;3.78;;;1.98;;
21546;SDS011;41275;51.912;4.388;2024-01-07T22:45:11;5.77;;;2.20;;
21546;SDS011;41275;51.912;4.388;2024-01-07T22:50:32;5.72;;;2.28;;
21546;SDS011;41275;51.912;4.388;2024-01-07T22:55:54;5.13;;;2.20;;
21546;SDS011;41275;51.912;4.388;2024-01-07T23:01:24;5.13;;;2.08;;
21546;SDS011;41275;51.912;4.388;2024-01-07T23:06:46;4.57;;;2.10;;
21546;SDS011;41275;51.912;4.388;2024-01-07T23:12:07;5.22;;;2.30;;
21546;SDS011;41275;51.912;4.388;2024-01-07T23:17:29;5.70;;;2.13;;
21546;SDS011;41275;51.912;4.388;2024-01-07T23:22:50;5.65;;;2.40;;
21546;SDS011;41275;51.912;4.388;2024-01-07T23:28:11;4.13;;;2.00;;
21546;SDS011;41275;51.912;4.388;2024-01-07T23:33:33;5.75;;;2.10;;
21546;SDS011;41275;51.912;4.388;2024-01-07T23:38:54;3.45;;;1.60;;
21546;SDS011;41275;51.912;4.388;2024-01-07T23:44:16;3.77;;;1.93;;
21546;SDS011;41275;51.912;4.388;2024-01-07T23:49:37;4.53;;;2.20;;
21546;SDS011;41275;51.912;4.388;2024-01-07T23:54:59;3.85;;;1.70;;
